sensor_id;sensor_type;location;lat;lon;timestamp;P1;durP1;ratioP1;P2;durP2;ratioP2
61200;SDS011;47065;52.898;6.992;2023-07-28T00:02:07;19.08;;;12.10;;
61200;SDS011;47065;52.898;6.992;2023-07-28T00:04:36;25.52;;;11.68;;
61200;SDS011;47065;52.898;6.992;2023-07-28T00:07:03;25.75;;;13.25;;
61200;SDS011;47065;52.898;6.992;2023-07-28T00:09:29;29.67;;;14.40;;
61200;SDS011;47065;52.898;6.992;2023-07-28T00:11:58;31.42;;;14.88;;
61200;SDS011;47065;52.898;6.992;2023-07-28T00:14:25;33.60;;;16.55;;
61200;SDS011;47065;52.898;6.992;2023-07-28T00:16:52;37.45;;;17.25;;
61200;SDS011;47065;52.898;6.992;2023-07-28T00:19:18;41.08;;;18.42;;
61200;SDS011;47065;52.898;6.992;2023-07-28T00:21:45;48.75;;;18.85;;
61200;SDS011;47065;52.898;6.992;2023-07-28T00:24:15;31.42;;;15.00;;
61200;SDS011;47065;52.898;6.992;2023-07-28T00:26:41;29.48;;;15.38;;
61200;SDS011;47065;52.898;6.992;2023-07-28T00:29:06;27.27;;;13.43;;
61200;SDS011;47065;52.898;6.992;2023-07-28T00:31:32;22.83;;;12.63;;
61200;SDS011;47065;52.898;6.992;2023-07-28T00:33:59;27.50;;;14.48;;
61200;SDS011;47065;52.898;6.992;2023-07-28T00:36:25;25.33;;;12.50;;
61200;SDS011;47065;52.898;6.992;2023-07-28T00:38:51;24.65;;;13.82;;
61200;SDS011;47065;52.898;6.992;2023-07-28T00:41:16;29.05;;;14.05;;
61200;SDS011;47065;52.898;6.992;2023-07-28T00:43:42;28.13;;;13.52;;
61200;SDS011;47065;52.898;6.992;2023-07-28T00:46:08;28.20;;;14.68;;
61200;SDS011;47065;52.898;6.992;2023-07-28T00:48:35;23.20;;;12.63;;
61200;SDS011;47065;52.898;6.992;2023-07-28T00:51:01;27.38;;;13.00;;
61200;SDS011;47065;52.898;6.992;2023-07-28T00:53:27;26.10;;;13.23;;
61200;SDS011;47065;52.898;6.992;2023-07-28T00:55:54;29.45;;;13.85;;
61200;SDS011;47065;52.898;6.992;2023-07-28T00:58:21;30.30;;;13.95;;
61200;SDS011;47065;52.898;6.992;2023-07-28T01:00:47;26.77;;;14.90;;
61200;SDS011;47065;52.898;6.992;2023-07-28T01:03:13;28.92;;;16.05;;
61200;SDS011;47065;52.898;6.992;2023-07-28T01:09:11;30.38;;;15.40;;
61200;SDS011;47065;52.898;6.992;2023-07-28T01:11:25;33.25;;;16.23;;
61200;SDS011;47065;52.898;6.992;2023-07-28T01:13:51;32.45;;;16.73;;
61200;SDS011;47065;52.898;6.992;2023-07-28T01:16:16;27.15;;;15.25;;
61200;SDS011;47065;52.898;6.992;2023-07-28T01:18:42;31.75;;;17.42;;
61200;SDS011;47065;52.898;6.992;2023-07-28T01:21:09;37.58;;;17.02;;
61200;SDS011;47065;52.898;6.992;2023-07-28T01:23:52;37.00;;;18.02;;
61200;SDS011;47065;52.898;6.992;2023-07-28T01:26:31;40.25;;;19.52;;
61200;SDS011;47065;52.898;6.992;2023-07-28T01:28:57;42.08;;;20.77;;
61200;SDS011;47065;52.898;6.992;2023-07-28T01:31:24;40.10;;;20.83;;
61200;SDS011;47065;52.898;6.992;2023-07-28T01:33:50;38.47;;;19.98;;
61200;SDS011;47065;52.898;6.992;2023-07-28T01:36:16;37.28;;;19.88;;
61200;SDS011;47065;52.898;6.992;2023-07-28T01:38:41;37.45;;;19.30;;
61200;SDS011;47065;52.898;6.992;2023-07-28T01:41:07;33.95;;;19.30;;
61200;SDS011;47065;52.898;6.992;2023-07-28T01:43:33;33.53;;;20.75;;
61200;SDS011;47065;52.898;6.992;2023-07-28T01:45:58;34.42;;;19.73;;
61200;SDS011;47065;52.898;6.992;2023-07-28T01:48:25;40.05;;;20.83;;
61200;SDS011;47065;52.898;6.992;2023-07-28T01:50:51;46.35;;;22.70;;
61200;SDS011;47065;52.898;6.992;2023-07-28T01:53:17;46.38;;;22.42;;
61200;SDS011;47065;52.898;6.992;2023-07-28T01:55:42;45.17;;;22.05;;
61200;SDS011;47065;52.898;6.992;2023-07-28T01:58:08;53.00;;;22.17;;
61200;SDS011;47065;52.898;6.992;2023-07-28T02:00:34;48.47;;;22.42;;
61200;SDS011;47065;52.898;6.992;2023-07-28T02:03:00;46.63;;;21.23;;
61200;SDS011;47065;52.898;6.992;2023-07-28T02:05:27;46.70;;;22.88;;
61200;SDS011;47065;52.898;6.992;2023-07-28T02:07:54;49.00;;;21.63;;
61200;SDS011;47065;52.898;6.992;2023-07-28T02:10:21;47.97;;;23.00;;
61200;SDS011;47065;52.898;6.992;2023-07-28T02:12:48;44.50;;;22.00;;
61200;SDS011;47065;52.898;6.992;2023-07-28T02:15:14;44.33;;;21.30;;
61200;SDS011;47065;52.898;6.992;2023-07-28T02:17:40;42.33;;;21.15;;
61200;SDS011;47065;52.898;6.992;2023-07-28T02:20:05;45.60;;;20.83;;
61200;SDS011;47065;52.898;6.992;2023-07-28T02:22:32;48.03;;;23.65;;
61200;SDS011;47065;52.898;6.992;2023-07-28T02:24:57;49.55;;;22.80;;
61200;SDS011;47065;52.898;6.992;2023-07-28T02:27:27;52.85;;;22.45;;
61200;SDS011;47065;52.898;6.992;2023-07-28T02:29:53;46.17;;;23.55;;
61200;SDS011;47065;52.898;6.992;2023-07-28T02:32:18;46.97;;;22.98;;
61200;SDS011;47065;52.898;6.992;2023-07-28T02:34:44;53.60;;;24.75;;
61200;SDS011;47065;52.898;6.992;2023-07-28T02:37:10;57.25;;;23.75;;
61200;SDS011;47065;52.898;6.992;2023-07-28T02:39:36;48.97;;;24.75;;
61200;SDS011;47065;52.898;6.992;2023-07-28T02:42:01;49.55;;;24.88;;
61200;SDS011;47065;52.898;6.992;2023-07-28T02:44:27;51.63;;;24.52;;
61200;SDS011;47065;52.898;6.992;2023-07-28T02:46:53;57.83;;;26.33;;
61200;SDS011;47065;52.898;6.992;2023-07-28T02:49:18;43.53;;;23.08;;
61200;SDS011;47065;52.898;6.992;2023-07-28T02:51:44;59.53;;;25.95;;
61200;SDS011;47065;52.898;6.992;2023-07-28T02:54:09;60.65;;;27.75;;
61200;SDS011;47065;52.898;6.992;2023-07-28T02:56:35;53.75;;;24.52;;
61200;SDS011;47065;52.898;6.992;2023-07-28T02:59:03;48.97;;;23.45;;
61200;SDS011;47065;52.898;6.992;2023-07-28T03:01:30;57.75;;;25.50;;
61200;SDS011;47065;52.898;6.992;2023-07-28T03:04:00;57.33;;;26.67;;
61200;SDS011;47065;52.898;6.992;2023-07-28T03:06:26;43.10;;;22.58;;
61200;SDS011;47065;52.898;6.992;2023-07-28T03:08:52;53.97;;;26.55;;
61200;SDS011;47065;52.898;6.992;2023-07-28T03:11:18;62.05;;;28.30;;
61200;SDS011;47065;52.898;6.992;2023-07-28T03:13:44;50.47;;;25.48;;
61200;SDS011;47065;52.898;6.992;2023-07-28T03:16:09;49.97;;;24.73;;
61200;SDS011;47065;52.898;6.992;2023-07-28T03:18:35;55.67;;;26.73;;
61200;SDS011;47065;52.898;6.992;2023-07-28T03:21:01;37.10;;;20.95;;
61200;SDS011;47065;52.898;6.992;2023-07-28T03:23:27;42.33;;;24.42;;
61200;SDS011;47065;52.898;6.992;2023-07-28T03:25:52;57.45;;;26.88;;
61200;SDS011;47065;52.898;6.992;2023-07-28T03:28:18;48.95;;;24.90;;
61200;SDS011;47065;52.898;6.992;2023-07-28T03:30:44;52.88;;;25.55;;
61200;SDS011;47065;52.898;6.992;2023-07-28T03:33:09;49.72;;;24.80;;
61200;SDS011;47065;52.898;6.992;2023-07-28T03:35:35;43.97;;;24.38;;
61200;SDS011;47065;52.898;6.992;2023-07-28T03:38:01;48.97;;;25.90;;
61200;SDS011;47065;52.898;6.992;2023-07-28T03:40:26;44.50;;;22.63;;
61200;SDS011;47065;52.898;6.992;2023-07-28T03:42:52;47.60;;;25.23;;
61200;SDS011;47065;52.898;6.992;2023-07-28T03:45:18;49.20;;;25.30;;
61200;SDS011;47065;52.898;6.992;2023-07-28T03:47:44;41.22;;;23.85;;
61200;SDS011;47065;52.898;6.992;2023-07-28T03:50:09;45.95;;;24.65;;
61200;SDS011;47065;52.898;6.992;2023-07-28T03:52:35;45.47;;;24.23;;
61200;SDS011;47065;52.898;6.992;2023-07-28T03:55:01;38.13;;;22.88;;
61200;SDS011;47065;52.898;6.992;2023-07-28T03:57:27;43.38;;;22.27;;
61200;SDS011;47065;52.898;6.992;2023-07-28T03:59:52;54.13;;;24.67;;
61200;SDS011;47065;52.898;6.992;2023-07-28T04:02:18;47.08;;;24.95;;
61200;SDS011;47065;52.898;6.992;2023-07-28T04:04:44;42.17;;;22.17;;
61200;SDS011;47065;52.898;6.992;2023-07-28T04:07:09;43.10;;;22.75;;
61200;SDS011;47065;52.898;6.992;2023-07-28T04:09:35;39.53;;;21.05;;
61200;SDS011;47065;52.898;6.992;2023-07-28T04:12:00;48.42;;;24.02;;
61200;SDS011;47065;52.898;6.992;2023-07-28T04:14:26;39.38;;;21.63;;
61200;SDS011;47065;52.898;6.992;2023-07-28T04:16:52;47.92;;;23.88;;
61200;SDS011;47065;52.898;6.992;2023-07-28T04:19:17;49.33;;;24.15;;
61200;SDS011;47065;52.898;6.992;2023-07-28T04:21:43;44.38;;;22.95;;
61200;SDS011;47065;52.898;6.992;2023-07-28T04:24:08;50.38;;;23.73;;
61200;SDS011;47065;52.898;6.992;2023-07-28T04:26:34;40.35;;;23.42;;
61200;SDS011;47065;52.898;6.992;2023-07-28T04:29:00;45.55;;;22.40;;
61200;SDS011;47065;52.898;6.992;2023-07-28T04:31:26;38.78;;;21.38;;
61200;SDS011;47065;52.898;6.992;2023-07-28T04:33:51;43.30;;;23.48;;
61200;SDS011;47065;52.898;6.992;2023-07-28T04:36:17;43.90;;;24.13;;
61200;SDS011;47065;52.898;6.992;2023-07-28T04:38:43;45.42;;;23.95;;
61200;SDS011;47065;52.898;6.992;2023-07-28T04:41:09;41.05;;;22.98;;
61200;SDS011;47065;52.898;6.992;2023-07-28T04:43:34;41.92;;;23.73;;
61200;SDS011;47065;52.898;6.992;2023-07-28T04:46:00;42.60;;;22.90;;
61200;SDS011;47065;52.898;6.992;2023-07-28T04:48:26;50.15;;;23.23;;
61200;SDS011;47065;52.898;6.992;2023-07-28T04:50:52;42.58;;;23.00;;
61200;SDS011;47065;52.898;6.992;2023-07-28T04:53:18;37.75;;;21.45;;
61200;SDS011;47065;52.898;6.992;2023-07-28T04:55:44;41.50;;;21.50;;
61200;SDS011;47065;52.898;6.992;2023-07-28T04:58:10;44.75;;;23.65;;
61200;SDS011;47065;52.898;6.992;2023-07-28T05:00:35;42.65;;;23.10;;
61200;SDS011;47065;52.898;6.992;2023-07-28T05:03:01;43.60;;;21.85;;
61200;SDS011;47065;52.898;6.992;2023-07-28T05:05:28;40.30;;;22.25;;
61200;SDS011;47065;52.898;6.992;2023-07-28T05:07:54;36.28;;;22.38;;
61200;SDS011;47065;52.898;6.992;2023-07-28T05:10:20;43.65;;;23.35;;
61200;SDS011;47065;52.898;6.992;2023-07-28T05:12:45;36.28;;;20.80;;
61200;SDS011;47065;52.898;6.992;2023-07-28T05:15:13;37.55;;;22.38;;
61200;SDS011;47065;52.898;6.992;2023-07-28T05:17:39;43.67;;;22.48;;
61200;SDS011;47065;52.898;6.992;2023-07-28T05:20:05;39.65;;;20.95;;
61200;SDS011;47065;52.898;6.992;2023-07-28T05:22:31;42.97;;;21.95;;
61200;SDS011;47065;52.898;6.992;2023-07-28T05:24:57;40.40;;;23.67;;
61200;SDS011;47065;52.898;6.992;2023-07-28T05:27:23;49.83;;;22.73;;
61200;SDS011;47065;52.898;6.992;2023-07-28T05:29:48;46.70;;;22.92;;
61200;SDS011;47065;52.898;6.992;2023-07-28T05:32:14;38.58;;;21.08;;
61200;SDS011;47065;52.898;6.992;2023-07-28T05:34:43;44.85;;;22.35;;
61200;SDS011;47065;52.898;6.992;2023-07-28T05:37:09;44.55;;;21.67;;
61200;SDS011;47065;52.898;6.992;2023-07-28T05:39:34;40.15;;;22.35;;
61200;SDS011;47065;52.898;6.992;2023-07-28T05:42:00;43.53;;;22.27;;
61200;SDS011;47065;52.898;6.992;2023-07-28T05:44:26;36.28;;;21.80;;
61200;SDS011;47065;52.898;6.992;2023-07-28T05:46:52;39.67;;;22.35;;
61200;SDS011;47065;52.898;6.992;2023-07-28T05:49:18;37.97;;;21.48;;
61200;SDS011;47065;52.898;6.992;2023-07-28T05:51:43;40.13;;;22.02;;
61200;SDS011;47065;52.898;6.992;2023-07-28T05:54:09;37.65;;;20.00;;
61200;SDS011;47065;52.898;6.992;2023-07-28T05:56:35;35.58;;;21.52;;
61200;SDS011;47065;52.898;6.992;2023-07-28T05:59:00;40.50;;;21.35;;
61200;SDS011;47065;52.898;6.992;2023-07-28T06:01:26;34.80;;;19.63;;
61200;SDS011;47065;52.898;6.992;2023-07-28T06:03:52;37.55;;;22.13;;
61200;SDS011;47065;52.898;6.992;2023-07-28T06:06:20;35.95;;;18.95;;
61200;SDS011;47065;52.898;6.992;2023-07-28T06:08:47;38.67;;;19.45;;
61200;SDS011;47065;52.898;6.992;2023-07-28T06:11:12;40.25;;;20.00;;
61200;SDS011;47065;52.898;6.992;2023-07-28T06:13:38;46.53;;;20.17;;
61200;SDS011;47065;52.898;6.992;2023-07-28T06:16:04;39.35;;;19.60;;
61200;SDS011;47065;52.898;6.992;2023-07-28T06:18:29;37.58;;;20.08;;
61200;SDS011;47065;52.898;6.992;2023-07-28T06:20:55;33.10;;;18.92;;
61200;SDS011;47065;52.898;6.992;2023-07-28T06:23:21;29.70;;;18.23;;
61200;SDS011;47065;52.898;6.992;2023-07-28T06:25:46;34.50;;;19.50;;
61200;SDS011;47065;52.898;6.992;2023-07-28T06:28:12;34.80;;;19.10;;
61200;SDS011;47065;52.898;6.992;2023-07-28T06:30:38;29.98;;;19.63;;
61200;SDS011;47065;52.898;6.992;2023-07-28T06:33:07;29.73;;;19.48;;
61200;SDS011;47065;52.898;6.992;2023-07-28T06:35:34;37.33;;;19.70;;
61200;SDS011;47065;52.898;6.992;2023-07-28T06:38:01;30.92;;;19.88;;
61200;SDS011;47065;52.898;6.992;2023-07-28T06:40:27;33.50;;;20.33;;
61200;SDS011;47065;52.898;6.992;2023-07-28T06:42:53;32.25;;;18.27;;
61200;SDS011;47065;52.898;6.992;2023-07-28T06:45:19;30.48;;;19.27;;
61200;SDS011;47065;52.898;6.992;2023-07-28T06:47:45;31.15;;;19.55;;
61200;SDS011;47065;52.898;6.992;2023-07-28T06:50:11;32.90;;;19.60;;
61200;SDS011;47065;52.898;6.992;2023-07-28T06:52:37;32.47;;;19.33;;
61200;SDS011;47065;52.898;6.992;2023-07-28T06:55:03;31.95;;;18.85;;
61200;SDS011;47065;52.898;6.992;2023-07-28T06:57:29;35.55;;;18.52;;
61200;SDS011;47065;52.898;6.992;2023-07-28T07:00:00;31.55;;;19.70;;
61200;SDS011;47065;52.898;6.992;2023-07-28T07:02:25;35.15;;;17.85;;
61200;SDS011;47065;52.898;6.992;2023-07-28T07:04:51;34.63;;;18.83;;
61200;SDS011;47065;52.898;6.992;2023-07-28T07:07:17;28.17;;;20.20;;
61200;SDS011;47065;52.898;6.992;2023-07-28T07:09:42;36.75;;;20.05;;
61200;SDS011;47065;52.898;6.992;2023-07-28T07:12:08;28.58;;;17.48;;
61200;SDS011;47065;52.898;6.992;2023-07-28T07:14:34;24.70;;;16.75;;
61200;SDS011;47065;52.898;6.992;2023-07-28T07:17:00;26.67;;;16.95;;
61200;SDS011;47065;52.898;6.992;2023-07-28T07:19:27;26.63;;;16.23;;
61200;SDS011;47065;52.898;6.992;2023-07-28T07:21:54;24.42;;;16.60;;
61200;SDS011;47065;52.898;6.992;2023-07-28T07:24:20;22.02;;;15.88;;
61200;SDS011;47065;52.898;6.992;2023-07-28T07:26:46;24.48;;;15.80;;
61200;SDS011;47065;52.898;6.992;2023-07-28T07:29:12;21.15;;;14.52;;
61200;SDS011;47065;52.898;6.992;2023-07-28T07:31:37;21.60;;;15.48;;
61200;SDS011;47065;52.898;6.992;2023-07-28T07:34:03;18.80;;;13.00;;
61200;SDS011;47065;52.898;6.992;2023-07-28T07:36:29;23.23;;;13.60;;
61200;SDS011;47065;52.898;6.992;2023-07-28T07:38:55;23.55;;;14.07;;
61200;SDS011;47065;52.898;6.992;2023-07-28T07:41:21;16.60;;;11.63;;
61200;SDS011;47065;52.898;6.992;2023-07-28T07:43:48;15.10;;;11.27;;
61200;SDS011;47065;52.898;6.992;2023-07-28T07:46:15;13.50;;;10.70;;
61200;SDS011;47065;52.898;6.992;2023-07-28T07:48:41;13.90;;;9.02;;
61200;SDS011;47065;52.898;6.992;2023-07-28T07:51:07;12.65;;;8.45;;
61200;SDS011;47065;52.898;6.992;2023-07-28T07:53:33;11.77;;;9.45;;
61200;SDS011;47065;52.898;6.992;2023-07-28T07:56:02;9.05;;;6.70;;
61200;SDS011;47065;52.898;6.992;2023-07-28T07:58:29;8.50;;;6.43;;
61200;SDS011;47065;52.898;6.992;2023-07-28T08:00:55;11.05;;;6.65;;
61200;SDS011;47065;52.898;6.992;2023-07-28T08:03:20;8.48;;;6.53;;
61200;SDS011;47065;52.898;6.992;2023-07-28T08:05:46;11.55;;;8.00;;
61200;SDS011;47065;52.898;6.992;2023-07-28T08:08:12;9.25;;;6.22;;
61200;SDS011;47065;52.898;6.992;2023-07-28T08:10:42;10.98;;;7.20;;
61200;SDS011;47065;52.898;6.992;2023-07-28T08:13:08;10.35;;;8.48;;
61200;SDS011;47065;52.898;6.992;2023-07-28T08:15:33;9.05;;;6.53;;
61200;SDS011;47065;52.898;6.992;2023-07-28T08:17:59;7.25;;;5.88;;
61200;SDS011;47065;52.898;6.992;2023-07-28T08:20:25;11.30;;;6.78;;
61200;SDS011;47065;52.898;6.992;2023-07-28T08:22:50;10.30;;;7.50;;
61200;SDS011;47065;52.898;6.992;2023-07-28T08:25:16;11.52;;;7.50;;
61200;SDS011;47065;52.898;6.992;2023-07-28T08:27:42;12.18;;;8.02;;
61200;SDS011;47065;52.898;6.992;2023-07-28T08:30:08;10.00;;;8.35;;
61200;SDS011;47065;52.898;6.992;2023-07-28T08:32:34;10.45;;;7.78;;
61200;SDS011;47065;52.898;6.992;2023-07-28T08:35:00;11.35;;;8.73;;
61200;SDS011;47065;52.898;6.992;2023-07-28T08:37:25;11.98;;;8.35;;
61200;SDS011;47065;52.898;6.992;2023-07-28T08:39:53;14.05;;;8.88;;
61200;SDS011;47065;52.898;6.992;2023-07-28T08:42:20;16.67;;;9.50;;
61200;SDS011;47065;52.898;6.992;2023-07-28T08:44:46;11.20;;;8.30;;
61200;SDS011;47065;52.898;6.992;2023-07-28T08:47:13;14.45;;;8.55;;
61200;SDS011;47065;52.898;6.992;2023-07-28T08:49:39;10.88;;;7.07;;
61200;SDS011;47065;52.898;6.992;2023-07-28T08:52:05;8.13;;;6.85;;
61200;SDS011;47065;52.898;6.992;2023-07-28T08:54:31;10.90;;;6.18;;
61200;SDS011;47065;52.898;6.992;2023-07-28T08:56:59;10.23;;;7.28;;
61200;SDS011;47065;52.898;6.992;2023-07-28T08:59:26;9.52;;;6.47;;
61200;SDS011;47065;52.898;6.992;2023-07-28T09:01:54;12.02;;;7.07;;
61200;SDS011;47065;52.898;6.992;2023-07-28T09:04:23;13.32;;;7.10;;
61200;SDS011;47065;52.898;6.992;2023-07-28T09:06:50;9.63;;;6.35;;
61200;SDS011;47065;52.898;6.992;2023-07-28T09:09:17;11.52;;;6.93;;
61200;SDS011;47065;52.898;6.992;2023-07-28T09:11:45;13.02;;;6.22;;
61200;SDS011;47065;52.898;6.992;2023-07-28T09:14:14;11.73;;;7.00;;
61200;SDS011;47065;52.898;6.992;2023-07-28T09:16:44;7.43;;;5.85;;
61200;SDS011;47065;52.898;6.992;2023-07-28T09:19:11;9.50;;;4.88;;
61200;SDS011;47065;52.898;6.992;2023-07-28T09:21:41;7.45;;;4.22;;
61200;SDS011;47065;52.898;6.992;2023-07-28T09:24:11;7.22;;;4.57;;
61200;SDS011;47065;52.898;6.992;2023-07-28T09:26:39;7.35;;;4.40;;
61200;SDS011;47065;52.898;6.992;2023-07-28T09:29:19;7.10;;;3.22;;
61200;SDS011;47065;52.898;6.992;2023-07-28T09:31:46;5.32;;;2.85;;
61200;SDS011;47065;52.898;6.992;2023-07-28T09:34:13;7.80;;;3.28;;
61200;SDS011;47065;52.898;6.992;2023-07-28T09:36:49;7.45;;;2.90;;
61200;SDS011;47065;52.898;6.992;2023-07-28T09:39:15;6.05;;;3.88;;
61200;SDS011;47065;52.898;6.992;2023-07-28T09:41:43;5.75;;;3.95;;
61200;SDS011;47065;52.898;6.992;2023-07-28T09:44:11;8.57;;;4.70;;
61200;SDS011;47065;52.898;6.992;2023-07-28T09:46:37;11.85;;;4.30;;
61200;SDS011;47065;52.898;6.992;2023-07-28T09:49:13;7.45;;;4.75;;
61200;SDS011;47065;52.898;6.992;2023-07-28T09:51:40;4.03;;;3.40;;
61200;SDS011;47065;52.898;6.992;2023-07-28T09:54:14;7.30;;;3.72;;
61200;SDS011;47065;52.898;6.992;2023-07-28T09:56:50;7.30;;;3.50;;
61200;SDS011;47065;52.898;6.992;2023-07-28T09:59:17;7.18;;;4.18;;
61200;SDS011;47065;52.898;6.992;2023-07-28T10:01:44;6.35;;;3.67;;
61200;SDS011;47065;52.898;6.992;2023-07-28T10:04:11;4.13;;;3.42;;
61200;SDS011;47065;52.898;6.992;2023-07-28T10:06:37;4.85;;;3.30;;
61200;SDS011;47065;52.898;6.992;2023-07-28T10:09:04;3.28;;;2.70;;
61200;SDS011;47065;52.898;6.992;2023-07-28T10:11:30;3.60;;;2.42;;
61200;SDS011;47065;52.898;6.992;2023-07-28T10:13:57;5.38;;;2.10;;
61200;SDS011;47065;52.898;6.992;2023-07-28T10:16:38;4.82;;;2.58;;
61200;SDS011;47065;52.898;6.992;2023-07-28T10:19:04;4.63;;;2.38;;
61200;SDS011;47065;52.898;6.992;2023-07-28T10:21:31;4.45;;;2.05;;
61200;SDS011;47065;52.898;6.992;2023-07-28T10:24:03;3.42;;;1.95;;
61200;SDS011;47065;52.898;6.992;2023-07-28T10:26:36;4.38;;;2.33;;
61200;SDS011;47065;52.898;6.992;2023-07-28T10:29:15;5.30;;;2.03;;
61200;SDS011;47065;52.898;6.992;2023-07-28T10:31:51;2.88;;;2.50;;
61200;SDS011;47065;52.898;6.992;2023-07-28T10:34:18;3.60;;;2.85;;
61200;SDS011;47065;52.898;6.992;2023-07-28T10:36:44;5.97;;;2.92;;
61200;SDS011;47065;52.898;6.992;2023-07-28T10:39:15;6.90;;;2.83;;
61200;SDS011;47065;52.898;6.992;2023-07-28T10:44:30;6.47;;;3.47;;
61200;SDS011;47065;52.898;6.992;2023-07-28T10:46:56;4.38;;;2.85;;
61200;SDS011;47065;52.898;6.992;2023-07-28T10:49:23;10.75;;;3.80;;
61200;SDS011;47065;52.898;6.992;2023-07-28T10:51:53;4.15;;;2.30;;
61200;SDS011;47065;52.898;6.992;2023-07-28T10:54:18;3.13;;;2.22;;
61200;SDS011;47065;52.898;6.992;2023-07-28T10:56:48;3.25;;;2.88;;
61200;SDS011;47065;52.898;6.992;2023-07-28T10:59:14;4.95;;;2.38;;
61200;SDS011;47065;52.898;6.992;2023-07-28T11:01:40;3.90;;;2.63;;
61200;SDS011;47065;52.898;6.992;2023-07-28T11:04:10;3.80;;;2.45;;
61200;SDS011;47065;52.898;6.992;2023-07-28T11:06:43;4.35;;;2.17;;
61200;SDS011;47065;52.898;6.992;2023-07-28T11:09:10;2.95;;;1.80;;
61200;SDS011;47065;52.898;6.992;2023-07-28T11:11:37;1.83;;;1.67;;
61200;SDS011;47065;52.898;6.992;2023-07-28T11:14:04;2.30;;;2.08;;
61200;SDS011;47065;52.898;6.992;2023-07-28T11:16:35;4.20;;;2.45;;
61200;SDS011;47065;52.898;6.992;2023-07-28T11:19:07;2.80;;;1.85;;
61200;SDS011;47065;52.898;6.992;2023-07-28T11:21:40;2.08;;;1.73;;
61200;SDS011;47065;52.898;6.992;2023-07-28T11:24:07;2.22;;;2.00;;
61200;SDS011;47065;52.898;6.992;2023-07-28T11:26:37;3.80;;;2.17;;
61200;SDS011;47065;52.898;6.992;2023-07-28T11:29:03;2.50;;;2.30;;
61200;SDS011;47065;52.898;6.992;2023-07-28T11:31:29;2.63;;;1.83;;
61200;SDS011;47065;52.898;6.992;2023-07-28T11:33:55;2.65;;;2.15;;
61200;SDS011;47065;52.898;6.992;2023-07-28T11:36:24;7.45;;;4.05;;
61200;SDS011;47065;52.898;6.992;2023-07-28T11:38:53;5.82;;;3.78;;
61200;SDS011;47065;52.898;6.992;2023-07-28T11:41:20;10.25;;;5.07;;
61200;SDS011;47065;52.898;6.992;2023-07-28T11:43:50;6.88;;;4.47;;
61200;SDS011;47065;52.898;6.992;2023-07-28T11:46:35;7.68;;;5.65;;
61200;SDS011;47065;52.898;6.992;2023-07-28T11:49:10;6.10;;;4.80;;
61200;SDS011;47065;52.898;6.992;2023-07-28T11:51:46;7.78;;;5.10;;
61200;SDS011;47065;52.898;6.992;2023-07-28T11:54:14;5.53;;;4.82;;
61200;SDS011;47065;52.898;6.992;2023-07-28T11:56:41;6.97;;;6.13;;
61200;SDS011;47065;52.898;6.992;2023-07-28T11:59:08;7.53;;;6.47;;
61200;SDS011;47065;52.898;6.992;2023-07-28T12:01:35;9.35;;;6.47;;
61200;SDS011;47065;52.898;6.992;2023-07-28T12:04:22;10.07;;;6.60;;
61200;SDS011;47065;52.898;6.992;2023-07-28T12:09:31;8.98;;;8.10;;
61200;SDS011;47065;52.898;6.992;2023-07-28T12:12:18;12.32;;;8.52;;
61200;SDS011;47065;52.898;6.992;2023-07-28T12:14:45;10.48;;;8.30;;
61200;SDS011;47065;52.898;6.992;2023-07-28T12:17:16;11.02;;;8.43;;
61200;SDS011;47065;52.898;6.992;2023-07-28T12:19:59;8.77;;;7.88;;
61200;SDS011;47065;52.898;6.992;2023-07-28T12:22:28;10.18;;;8.32;;
61200;SDS011;47065;52.898;6.992;2023-07-28T12:24:55;11.48;;;9.02;;
61200;SDS011;47065;52.898;6.992;2023-07-28T12:27:20;11.40;;;9.10;;
61200;SDS011;47065;52.898;6.992;2023-07-28T12:29:51;12.63;;;8.18;;
61200;SDS011;47065;52.898;6.992;2023-07-28T12:32:17;11.15;;;7.97;;
61200;SDS011;47065;52.898;6.992;2023-07-28T12:34:43;8.50;;;7.45;;
61200;SDS011;47065;52.898;6.992;2023-07-28T12:37:09;10.07;;;8.05;;
61200;SDS011;47065;52.898;6.992;2023-07-28T12:39:36;10.15;;;7.88;;
61200;SDS011;47065;52.898;6.992;2023-07-28T12:42:06;10.25;;;9.20;;
61200;SDS011;47065;52.898;6.992;2023-07-28T12:44:33;10.32;;;8.48;;
61200;SDS011;47065;52.898;6.992;2023-07-28T12:47:00;13.93;;;10.07;;
61200;SDS011;47065;52.898;6.992;2023-07-28T12:49:25;14.55;;;10.77;;
61200;SDS011;47065;52.898;6.992;2023-07-28T12:51:54;11.63;;;10.05;;
61200;SDS011;47065;52.898;6.992;2023-07-28T12:54:21;8.70;;;6.78;;
61200;SDS011;47065;52.898;6.992;2023-07-28T12:56:47;5.80;;;4.75;;
61200;SDS011;47065;52.898;6.992;2023-07-28T12:59:13;4.10;;;3.70;;
61200;SDS011;47065;52.898;6.992;2023-07-28T13:01:39;4.30;;;4.00;;
61200;SDS011;47065;52.898;6.992;2023-07-28T13:04:05;5.88;;;4.18;;
61200;SDS011;47065;52.898;6.992;2023-07-28T13:06:31;7.65;;;4.93;;
61200;SDS011;47065;52.898;6.992;2023-07-28T13:08:58;5.25;;;4.75;;
61200;SDS011;47065;52.898;6.992;2023-07-28T13:11:24;4.93;;;4.43;;
61200;SDS011;47065;52.898;6.992;2023-07-28T13:13:49;9.15;;;5.63;;
61200;SDS011;47065;52.898;6.992;2023-07-28T13:16:15;9.30;;;7.53;;
61200;SDS011;47065;52.898;6.992;2023-07-28T13:18:42;9.60;;;8.18;;
61200;SDS011;47065;52.898;6.992;2023-07-28T13:21:08;13.82;;;8.55;;
61200;SDS011;47065;52.898;6.992;2023-07-28T13:23:35;7.80;;;6.82;;
61200;SDS011;47065;52.898;6.992;2023-07-28T13:26:01;12.63;;;8.65;;
61200;SDS011;47065;52.898;6.992;2023-07-28T13:28:29;9.63;;;8.23;;
61200;SDS011;47065;52.898;6.992;2023-07-28T13:30:55;8.10;;;7.35;;
61200;SDS011;47065;52.898;6.992;2023-07-28T13:33:21;11.55;;;8.45;;
61200;SDS011;47065;52.898;6.992;2023-07-28T13:35:47;16.10;;;8.88;;
61200;SDS011;47065;52.898;6.992;2023-07-28T13:38:13;8.82;;;7.60;;
61200;SDS011;47065;52.898;6.992;2023-07-28T13:40:38;7.70;;;6.90;;
61200;SDS011;47065;52.898;6.992;2023-07-28T13:43:04;6.15;;;5.55;;
61200;SDS011;47065;52.898;6.992;2023-07-28T13:45:30;9.23;;;5.63;;
61200;SDS011;47065;52.898;6.992;2023-07-28T13:47:55;6.18;;;4.75;;
61200;SDS011;47065;52.898;6.992;2023-07-28T13:50:21;6.63;;;4.97;;
61200;SDS011;47065;52.898;6.992;2023-07-28T13:52:47;7.53;;;4.93;;
61200;SDS011;47065;52.898;6.992;2023-07-28T13:55:12;5.03;;;3.38;;
61200;SDS011;47065;52.898;6.992;2023-07-28T13:57:38;3.88;;;3.38;;
61200;SDS011;47065;52.898;6.992;2023-07-28T14:00:04;5.10;;;3.60;;
61200;SDS011;47065;52.898;6.992;2023-07-28T14:02:34;4.32;;;3.63;;
61200;SDS011;47065;52.898;6.992;2023-07-28T14:05:03;4.85;;;3.97;;
61200;SDS011;47065;52.898;6.992;2023-07-28T14:07:29;5.20;;;3.30;;
61200;SDS011;47065;52.898;6.992;2023-07-28T14:09:54;4.05;;;3.20;;
61200;SDS011;47065;52.898;6.992;2023-07-28T14:12:20;2.92;;;2.60;;
61200;SDS011;47065;52.898;6.992;2023-07-28T14:14:46;4.40;;;3.83;;
61200;SDS011;47065;52.898;6.992;2023-07-28T14:17:11;3.78;;;3.38;;
61200;SDS011;47065;52.898;6.992;2023-07-28T14:19:38;4.55;;;3.05;;
61200;SDS011;47065;52.898;6.992;2023-07-28T14:22:04;4.32;;;3.95;;
61200;SDS011;47065;52.898;6.992;2023-07-28T14:24:30;5.75;;;3.67;;
61200;SDS011;47065;52.898;6.992;2023-07-28T14:26:56;3.88;;;3.28;;
61200;SDS011;47065;52.898;6.992;2023-07-28T14:29:21;4.07;;;3.78;;
61200;SDS011;47065;52.898;6.992;2023-07-28T14:31:47;5.47;;;3.83;;
61200;SDS011;47065;52.898;6.992;2023-07-28T14:34:13;3.65;;;3.35;;
61200;SDS011;47065;52.898;6.992;2023-07-28T14:36:39;4.95;;;3.70;;
61200;SDS011;47065;52.898;6.992;2023-07-28T14:39:04;4.80;;;3.10;;